Time;durP1;ratioP1;P1;durP2;ratioP2;P2;SDS_P1;SDS_P2;PMS_P1;PMS_P2;Temp;Humidity;BMP_temperature;BMP_pressure;BME280_temperature;BME280_humidity;BME280_pressure;Samples;Min_cycle;Max_cycle;Signal;HPM_P1;HPM_P2
2022/03/29 00:01:16;;;;;;;16.27;11.80;;;;;;;11.76;42.48;95134.66;4986306;28;20225;-66
2022/03/29 00:03:42;;;;;;;19.38;12.60;;;;;;;11.79;42.51;95131.69;4969723;28;20224;-65
2022/03/29 00:06:08;;;;;;;15.45;12.68;;;;;;;11.83;42.31;95124.28;4962728;28;20292;-66
2022/03/29 00:08:33;;;;;;;19.83;12.90;;;;;;;11.86;43.03;95127.47;4959255;28;20236;-67
2022/03/29 00:10:58;;;;;;;18.20;13.02;;;;;;;11.64;43.51;95122.72;4963751;28;20235;-65
2022/03/29 00:13:24;;;;;;;18.05;12.20;;;;;;;11.58;43.46;95123.34;4964613;28;20205;-67
2022/03/29 00:15:50;;;;;;;16.25;11.60;;;;;;;11.50;43.45;95118.03;4960391;28;20227;-67
2022/03/29 00:18:15;;;;;;;15.80;11.85;;;;;;;11.48;43.23;95116.34;4959076;28;20239;-67
2022/03/29 00:20:41;;;;;;;17.05;11.88;;;;;;;11.66;42.88;95111.03;4963823;28;20228;-67
2022/03/29 00:23:06;;;;;;;16.35;11.25;;;;;;;11.78;42.62;95108.94;4957155;28;20264;-67
2022/03/29 00:25:32;;;;;;;19.95;11.93;;;;;;;11.81;42.33;95100.72;4966301;28;20205;-67
2022/03/29 00:27:58;;;;;;;15.15;10.60;;;;;;;11.80;42.33;95099.09;4969789;28;20235;-67
2022/03/29 00:30:23;;;;;;;12.93;10.40;;;;;;;11.78;42.15;95103.69;4956429;28;20221;-67
2022/03/29 00:32:49;;;;;;;13.25;10.25;;;;;;;11.67;42.56;95101.31;4954348;28;20224;-65
2022/03/29 00:35:14;;;;;;;14.75;10.18;;;;;;;11.62;42.50;95093.06;4959684;28;20188;-65
2022/03/29 00:37:42;;;;;;;16.35;10.65;;;;;;;11.54;42.77;95093.84;4969606;28;20208;-62
2022/03/29 00:40:09;;;;;;;14.15;11.15;;;;;;;11.49;42.93;95085.56;4968690;28;20235;-67
2022/03/29 00:42:35;;;;;;;13.63;10.65;;;;;;;11.53;42.81;95086.09;4976201;28;20250;-67
2022/03/29 00:45:01;;;;;;;15.48;10.70;;;;;;;11.52;42.82;95087.06;4959907;28;20708;-67
2022/03/29 00:47:26;;;;;;;14.77;11.45;;;;;;;11.45;42.97;95084.25;4961380;28;20216;-65
2022/03/29 00:49:52;;;;;;;15.35;11.23;;;;;;;11.37;43.34;95071.03;4965111;28;20219;-65
2022/03/29 00:52:19;;;;;;;14.60;10.82;;;;;;;11.43;43.13;95078.31;4966014;28;20224;-65
2022/03/29 00:54:44;;;;;;;15.20;11.80;;;;;;;11.48;43.28;95074.22;4960188;28;20232;-66
2022/03/29 00:57:11;;;;;;;14.45;11.02;;;;;;;11.50;43.18;95078.53;4967474;28;20228;-63
2022/03/29 00:59:38;;;;;;;17.90;11.93;;;;;;;11.40;43.59;95070.72;4964484;28;20223;-62
2022/03/29 01:02:05;;;;;;;19.27;11.55;;;;;;;11.17;44.04;95067.75;4963337;28;20327;-67
2022/03/29 01:04:30;;;;;;;15.15;12.07;;;;;;;11.11;44.46;95071.84;4962981;28;20203;-65
2022/03/29 01:06:58;;;;;;;16.55;12.23;;;;;;;10.99;44.73;95062.56;4960729;28;20219;-66
2022/03/29 01:09:25;;;;;;;17.60;12.02;;;;;;;10.98;44.87;95058.25;4962959;28;20300;-66
2022/03/29 01:11:51;;;;;;;21.10;12.75;;;;;;;10.84;45.47;95050.91;4964771;28;20393;-66
2022/03/29 01:14:16;;;;;;;17.67;12.23;;;;;;;10.83;45.60;95055.38;4963821;28;20201;-66
2022/03/29 01:19:27;;;;;;;14.80;11.80;;;;;;;10.91;45.47;95039.63;4957405;28;20282;-65
2022/03/29 01:22:00;;;;;;;19.23;12.13;;;;;;;10.91;45.46;95041.44;4951263;28;20289;-66
2022/03/29 01:24:27;;;;;;;15.98;11.63;;;;;;;10.75;45.95;95042.97;4956569;28;20235;-65
2022/03/29 01:26:57;;;;;;;18.02;12.43;;;;;;;10.64;46.47;95037.09;4955674;28;20228;-65
2022/03/29 01:29:23;;;;;;;14.90;12.23;;;;;;;10.79;46.04;95039.03;4959349;28;20232;-65
2022/03/29 01:31:50;;;;;;;18.17;12.38;;;;;;;10.63;46.04;95033.66;4961524;28;20197;-65
2022/03/29 01:34:17;;;;;;;22.15;12.32;;;;;;;10.59;46.18;95030.50;4957468;28;20236;-66
2022/03/29 01:36:42;;;;;;;18.48;11.98;;;;;;;10.52;46.24;95024.19;4956952;28;20227;-67
2022/03/29 01:39:08;;;;;;;18.00;12.18;;;;;;;10.50;46.21;95020.88;4958157;28;20239;-66
2022/03/29 01:41:33;;;;;;;19.63;11.98;;;;;;;10.48;46.02;95017.59;4959905;28;20221;-67
2022/03/29 01:43:59;;;;;;;17.48;12.48;;;;;;;10.34;46.60;95018.09;4961357;28;20212;-67
2022/03/29 01:46:25;;;;;;;18.92;12.02;;;;;;;10.19;47.33;95012.53;4965122;28;20201;-66
2022/03/29 01:48:51;;;;;;;18.45;11.60;;;;;;;10.23;47.29;95015.69;4962343;28;20317;-66
2022/03/29 01:51:16;;;;;;;18.58;12.77;;;;;;;10.35;47.07;95009.28;4967697;28;20224;-67
2022/03/29 01:53:45;;;;;;;19.83;12.50;;;;;;;10.34;47.00;95003.19;4963240;28;20313;-67
2022/03/29 01:56:11;;;;;;;15.85;12.20;;;;;;;10.33;46.25;95008.59;4969754;28;20220;-67
2022/03/29 01:58:36;;;;;;;17.02;11.98;;;;;;;10.37;46.29;94991.53;4966535;28;20200;-67
2022/03/29 02:01:01;;;;;;;17.00;12.50;;;;;;;10.33;46.28;95001.53;4955590;28;20235;-67
2022/03/29 02:03:27;;;;;;;18.27;12.00;;;;;;;10.30;46.38;94985.25;4956420;28;20224;-67
2022/03/29 02:05:53;;;;;;;16.08;12.57;;;;;;;10.15;47.26;94990.16;4962116;28;20217;-67
2022/03/29 02:08:18;;;;;;;17.27;12.15;;;;;;;9.97;47.61;94991.94;4961375;28;20220;-66
2022/03/29 02:10:44;;;;;;;15.20;11.85;;;;;;;9.84;47.99;94984.44;4959302;28;20204;-67
2022/03/29 02:13:09;;;;;;;16.88;12.63;;;;;;;9.98;47.75;94983.91;4965279;28;20228;-66
2022/03/29 02:15:38;;;;;;;18.80;12.57;;;;;;;9.92;47.75;94971.38;4962790;28;20243;-66
2022/03/29 02:18:05;;;;;;;16.50;12.27;;;;;;;9.89;48.11;94969.03;4956524;28;20239;-65
2022/03/29 02:20:31;;;;;;;17.10;12.68;;;;;;;9.84;48.23;94963.44;4959080;28;20228;-65
2022/03/29 02:23:04;;;;;;;19.85;12.10;;;;;;;9.83;48.35;94973.06;4957063;28;20274;-65
2022/03/29 02:25:30;;;;;;;21.27;13.15;;;;;;;9.77;48.74;94962.34;4965629;28;20785;-67
2022/03/29 02:27:56;;;;;;;21.65;13.02;;;;;;;9.73;48.63;94967.09;4957650;28;20265;-67
2022/03/29 02:30:21;;;;;;;20.20;13.18;;;;;;;9.79;48.41;94965.66;4953397;28;20235;-66
2022/03/29 02:32:46;;;;;;;22.58;12.75;;;;;;;9.85;47.98;94965.06;4962172;28;20228;-64
2022/03/29 02:35:13;;;;;;;19.63;12.60;;;;;;;9.80;48.08;94969.94;4958655;28;20459;-64
2022/03/29 02:37:38;;;;;;;13.50;11.88;;;;;;;9.67;48.61;94971.09;4960171;28;20223;-65
2022/03/29 02:40:05;;;;;;;15.47;11.70;;;;;;;9.62;48.68;94967.25;4966458;28;20231;-64
2022/03/29 02:42:32;;;;;;;15.18;12.18;;;;;;;9.67;48.85;94970.28;4956373;28;20279;-65
2022/03/29 02:44:58;;;;;;;15.05;12.02;;;;;;;9.71;48.16;94974.28;4954616;28;20279;-65
2022/03/29 02:47:23;;;;;;;18.45;11.60;;;;;;;9.75;47.89;94965.13;4958256;28;20266;-66
2022/03/29 02:49:49;;;;;;;17.92;12.25;;;;;;;9.70;47.94;94964.72;4963285;28;20253;-67
2022/03/29 02:52:15;;;;;;;21.35;12.73;;;;;;;9.49;48.46;94960.59;4954989;28;20237;-63
2022/03/29 02:54:41;;;;;;;26.13;13.73;;;;;;;9.40;49.14;94955.38;4959595;28;20244;-63
2022/03/29 02:57:07;;;;;;;25.42;13.63;;;;;;;9.41;49.15;94957.00;4964096;28;20232;-62
2022/03/29 02:59:32;;;;;;;21.05;12.75;;;;;;;9.49;48.70;94957.97;4959424;28;20495;-62
2022/03/29 03:01:58;;;;;;;23.70;12.10;;;;;;;9.36;49.01;94961.91;4962913;28;20246;-62
2022/03/29 03:04:23;;;;;;;21.75;12.60;;;;;;;9.21;49.49;94953.66;4961374;28;20212;-65
2022/03/29 03:06:49;;;;;;;29.30;13.93;;;;;;;9.22;49.48;94958.78;4956217;28;20216;-65
2022/03/29 03:09:14;;;;;;;17.50;11.77;;;;;;;9.33;48.98;94952.53;4960537;28;20285;-67
2022/03/29 03:11:40;;;;;;;22.75;12.38;;;;;;;9.37;48.94;94960.91;4965144;28;20221;-63
2022/03/29 03:14:06;;;;;;;21.27;13.43;;;;;;;9.26;49.15;94957.50;4972340;28;20270;-66
2022/03/29 03:16:31;;;;;;;25.07;14.00;;;;;;;9.16;49.37;94955.91;4959671;28;20224;-67
2022/03/29 03:18:57;;;;;;;25.43;13.87;;;;;;;9.13;49.56;94961.44;4966076;28;20302;-66
2022/03/29 03:21:22;;;;;;;20.97;13.27;;;;;;;9.17;49.42;94958.38;4988478;28;20622;-66
2022/03/29 03:23:48;;;;;;;20.20;12.60;;;;;;;9.23;49.15;94956.97;4958289;28;20283;-66
2022/03/29 03:26:13;;;;;;;22.23;13.13;;;;;;;9.07;49.44;94957.59;4958145;28;20232;-66
2022/03/29 03:28:39;;;;;;;19.97;13.00;;;;;;;9.00;49.83;94956.50;4965001;28;20220;-65
2022/03/29 03:31:04;;;;;;;22.43;12.93;;;;;;;9.05;49.80;94965.59;4959896;28;20233;-63
2022/03/29 03:33:30;;;;;;;26.23;13.35;;;;;;;9.17;49.55;94955.78;4967326;28;20279;-63
2022/03/29 03:35:55;;;;;;;21.30;12.20;;;;;;;9.02;50.17;94946.72;4965655;28;20228;-62
2022/03/29 03:38:21;;;;;;;28.03;13.00;;;;;;;9.06;49.81;94942.81;4955168;28;20248;-62
2022/03/29 03:40:47;;;;;;;30.57;13.47;;;;;;;8.91;50.19;94945.09;4964252;28;20257;-62
2022/03/29 03:43:12;;;;;;;24.40;14.98;;;;;;;8.88;50.38;94944.56;4964086;28;20564;-62
2022/03/29 03:45:38;;;;;;;37.23;15.10;;;;;;;9.05;50.04;94949.03;4960794;28;20274;-62
2022/03/29 03:48:04;;;;;;;33.87;14.87;;;;;;;9.15;49.72;94955.06;4965867;28;20240;-63
2022/03/29 03:50:30;;;;;;;36.27;15.30;;;;;;;9.06;49.82;94950.69;4962057;28;20224;-62
2022/03/29 03:52:56;;;;;;;36.73;16.00;;;;;;;8.82;50.65;94946.78;4961323;28;20234;-63
2022/03/29 03:55:21;;;;;;;36.37;15.33;;;;;;;8.73;50.67;94952.88;4961016;28;20228;-63
2022/03/29 03:57:48;;;;;;;32.50;14.40;;;;;;;8.56;51.15;94959.66;4989627;28;20227;-62
2022/03/29 04:00:14;;;;;;;34.90;16.03;;;;;;;8.63;51.03;94954.66;4958509;28;20216;-67
2022/03/29 04:02:41;;;;;;;33.20;15.70;;;;;;;8.65;51.24;94944.88;4973931;28;20225;-66
2022/03/29 04:05:13;;;;;;;25.80;14.07;;;;;;;8.60;51.18;94949.72;4968647;28;20275;-66
2022/03/29 04:07:39;;;;;;;26.30;14.13;;;;;;;8.30;52.37;94954.16;4963946;28;20228;-67
2022/03/29 04:10:06;;;;;;;27.13;14.07;;;;;;;8.41;52.04;94950.59;4969433;28;20251;-66
2022/03/29 04:12:32;;;;;;;24.07;13.67;;;;;;;8.42;51.63;94952.25;4958130;28;20357;-66
2022/03/29 04:14:57;;;;;;;24.57;13.27;;;;;;;8.60;51.25;94947.09;4967114;28;20245;-67
2022/03/29 04:17:23;;;;;;;20.93;13.07;;;;;;;8.37;51.78;94944.78;4960693;28;20224;-66
2022/03/29 04:19:48;;;;;;;27.67;14.30;;;;;;;8.41;51.76;94950.59;4956510;28;20225;-66
2022/03/29 04:22:18;;;;;;;29.70;15.30;;;;;;;8.38;51.84;94948.22;4958372;28;20258;-63
2022/03/29 04:24:44;;;;;;;29.93;15.20;;;;;;;8.60;51.60;94957.59;4964700;28;20271;-61
2022/03/29 04:27:09;;;;;;;37.17;15.80;;;;;;;8.59;51.53;94956.75;4969397;28;20228;-60
2022/03/29 04:29:35;;;;;;;34.90;15.93;;;;;;;8.45;51.98;94956.38;4964379;28;20228;-64
2022/03/29 04:32:00;;;;;;;30.55;16.25;;;;;;;8.46;51.96;94956.22;4967392;28;20239;-60
2022/03/29 04:34:26;;;;;;;40.93;16.27;;;;;;;8.48;51.93;94950.88;4956912;28;20212;-61
2022/03/29 04:36:51;;;;;;;27.23;15.30;;;;;;;8.43;52.02;94956.50;4965334;28;20243;-61
2022/03/29 04:39:17;;;;;;;37.67;17.17;;;;;;;8.44;52.08;94952.91;4960019;28;20224;-61
2022/03/29 04:41:42;;;;;;;31.02;16.15;;;;;;;8.53;51.83;94948.66;4957607;28;20224;-61
2022/03/29 04:44:08;;;;;;;45.70;16.65;;;;;;;8.39;52.30;94958.59;4956405;28;20223;-61
2022/03/29 04:46:33;;;;;;;52.20;17.23;;;;;;;8.45;52.16;94953.78;4958683;28;20210;-61
2022/03/29 04:48:58;;;;;;;46.77;17.03;;;;;;;8.49;52.33;94939.41;4963524;28;20229;-61
2022/03/29 04:51:24;;;;;;;46.13;17.20;;;;;;;8.52;51.96;94944.34;4945377;28;20269;-61
2022/03/29 04:53:49;;;;;;;34.95;15.82;;;;;;;8.51;52.21;94950.56;4990304;28;20278;-61
2022/03/29 04:56:16;;;;;;;42.13;17.33;;;;;;;8.63;51.53;94957.28;4958404;28;20227;-61
2022/03/29 04:58:41;;;;;;;37.90;17.55;;;;;;;8.51;51.93;94955.81;4961612;28;20247;-61
2022/03/29 05:01:07;;;;;;;40.55;17.48;;;;;;;8.46;52.16;94958.03;4959371;28;20302;-60
2022/03/29 05:03:32;;;;;;;44.97;16.57;;;;;;;8.65;51.51;94958.00;4947085;28;20262;-61
2022/03/29 05:05:58;;;;;;;52.72;16.85;;;;;;;8.50;52.05;94949.75;4954887;28;20221;-61
2022/03/29 05:08:24;;;;;;;34.03;16.27;;;;;;;8.66;51.70;94954.41;4962744;28;20223;-61
2022/03/29 05:10:49;;;;;;;35.40;15.57;;;;;;;8.71;51.40;94946.94;4962771;28;20200;-61
2022/03/29 05:13:16;;;;;;;36.33;16.40;;;;;;;8.79;50.96;94939.22;4953006;28;20258;-62
2022/03/29 05:15:42;;;;;;;36.25;16.98;;;;;;;8.87;50.84;94942.88;4952717;28;20233;-61
2022/03/29 05:18:07;;;;;;;36.13;16.02;;;;;;;8.92;50.57;94943.28;4968468;28;20230;-62
2022/03/29 05:20:32;;;;;;;30.27;16.83;;;;;;;9.03;50.24;94954.44;4963326;28;20238;-61
2022/03/29 05:23:00;;;;;;;28.65;14.55;;;;;;;9.06;50.11;94950.69;4953988;28;20258;-62
2022/03/29 05:25:26;;;;;;;38.45;15.32;;;;;;;9.10;49.52;94951.25;4961205;28;20235;-61
2022/03/29 05:27:53;;;;;;;24.58;15.57;;;;;;;9.07;49.74;94952.34;4962125;28;20299;-62
2022/03/29 05:30:19;;;;;;;22.30;14.43;;;;;;;9.18;49.68;94949.53;4951622;28;20232;-63
2022/03/29 05:32:45;;;;;;;25.30;14.52;;;;;;;9.27;49.08;94947.84;4959838;28;20220;-62
2022/03/29 05:35:11;;;;;;;28.73;15.45;;;;;;;9.11;49.70;94948.44;4964955;28;20270;-63
2022/03/29 05:37:39;;;;;;;35.00;16.60;;;;;;;9.27;48.83;94940.81;4966349;28;20329;-62
2022/03/29 05:40:07;;;;;;;39.67;16.88;;;;;;;9.37;48.90;94948.63;4957169;28;20229;-63
2022/03/29 05:42:39;;;;;;;36.47;17.10;;;;;;;9.41;48.99;94949.13;4957517;28;20224;-60
2022/03/29 05:45:06;;;;;;;34.40;16.95;;;;;;;9.46;48.54;94953.00;4988922;28;20344;-61
2022/03/29 05:50:16;;;;;;;35.55;16.25;;;;;;;9.61;47.67;94942.81;4958313;28;20218;-62
2022/03/29 05:52:46;;;;;;;27.50;15.18;;;;;;;9.71;47.58;94940.97;4962943;28;20216;-64
2022/03/29 05:55:11;;;;;;;25.75;14.32;;;;;;;9.82;46.76;94944.34;4962624;28;20236;-62
2022/03/29 05:57:37;;;;;;;26.53;14.97;;;;;;;9.72;47.42;94947.84;4982657;28;20244;-61
2022/03/29 06:00:08;;;;;;;21.48;15.10;;;;;;;9.92;46.72;94947.75;4957761;28;20282;-60
2022/03/29 06:02:34;;;;;;;19.42;13.48;;;;;;;10.07;45.98;94940.97;4957285;28;20224;-61
2022/03/29 06:05:00;;;;;;;24.85;14.73;;;;;;;10.16;45.85;94939.25;4954476;28;20222;-62
2022/03/29 06:07:26;;;;;;;24.17;15.95;;;;;;;10.21;45.29;94946.66;4963749;28;20257;-62
2022/03/29 06:09:51;;;;;;;25.20;14.97;;;;;;;10.24;45.00;94943.78;4962053;28;20225;-62
2022/03/29 06:12:22;;;;;;;19.95;13.82;;;;;;;10.30;45.10;94938.75;4958709;28;20239;-62
2022/03/29 06:14:47;;;;;;;20.87;14.50;;;;;;;10.38;44.95;94938.00;4963056;28;20227;-62
2022/03/29 06:17:13;;;;;;;21.90;13.80;;;;;;;10.41;45.08;94940.31;4964754;28;20231;-61
2022/03/29 06:19:38;;;;;;;20.60;13.52;;;;;;;10.56;44.75;94936.16;4962145;28;20235;-62
2022/03/29 06:22:04;;;;;;;30.02;14.68;;;;;;;10.52;44.67;94937.44;4963909;28;20712;-62
2022/03/29 06:24:31;;;;;;;29.17;14.40;;;;;;;10.71;44.31;94935.59;4994089;28;20278;-64
2022/03/29 06:26:58;;;;;;;23.77;15.00;;;;;;;10.92;43.51;94930.78;4989364;28;20298;-63
2022/03/29 06:29:23;;;;;;;21.25;14.15;;;;;;;10.97;43.44;94938.22;4964570;28;20228;-62
2022/03/29 06:31:49;;;;;;;25.95;13.85;;;;;;;10.94;43.55;94933.28;4956060;28;20212;-62
2022/03/29 06:34:15;;;;;;;22.08;15.25;;;;;;;11.08;43.47;94926.59;4957186;28;20221;-62
2022/03/29 06:36:41;;;;;;;23.40;13.88;;;;;;;11.09;43.14;94926.44;4960935;28;20220;-62
2022/03/29 06:39:08;;;;;;;15.60;12.57;;;;;;;11.24;42.76;94932.75;4955281;28;20224;-61
2022/03/29 06:41:34;;;;;;;19.98;13.30;;;;;;;11.38;42.63;94936.59;4962015;28;20248;-62
2022/03/29 06:44:00;;;;;;;18.75;13.48;;;;;;;11.31;42.82;94934.78;4961749;28;20211;-63
2022/03/29 06:46:26;;;;;;;20.70;13.65;;;;;;;11.32;42.84;94931.16;4962404;28;20211;-62
2022/03/29 06:48:54;;;;;;;19.38;13.13;;;;;;;11.52;42.58;94926.44;4965504;28;20223;-65
2022/03/29 06:51:19;;;;;;;19.63;13.05;;;;;;;11.52;42.45;94931.72;4960439;28;20232;-65
2022/03/29 06:53:45;;;;;;;18.52;13.23;;;;;;;11.45;42.39;94921.81;4960198;28;20370;-67
2022/03/29 06:56:11;;;;;;;17.67;13.57;;;;;;;11.64;42.45;94920.72;4960511;28;20220;-64
2022/03/29 06:58:37;;;;;;;21.27;13.43;;;;;;;11.73;41.80;94924.19;4992876;28;20204;-64
2022/03/29 07:01:03;;;;;;;18.65;14.07;;;;;;;11.82;42.08;94920.63;4962046;28;20227;-64
2022/03/29 07:03:30;;;;;;;22.67;12.35;;;;;;;11.95;41.61;94919.34;4969084;28;20228;-64
2022/03/29 07:05:56;;;;;;;19.38;13.25;;;;;;;12.05;41.48;94914.75;4965329;28;20319;-65
2022/03/29 07:08:22;;;;;;;19.20;13.38;;;;;;;12.12;41.15;94923.66;4960653;28;20958;-66
2022/03/29 07:13:32;;;;;;;15.23;13.25;;;;;;;12.31;40.70;94918.06;4959609;28;20267;-66
2022/03/29 07:15:58;;;;;;;18.02;13.13;;;;;;;12.42;40.70;94908.16;4959075;28;20224;-66
2022/03/29 07:18:23;;;;;;;16.75;13.30;;;;;;;12.47;40.55;94906.69;4969913;28;20232;-66
2022/03/29 07:20:49;;;;;;;16.38;13.52;;;;;;;12.65;40.50;94903.88;4963162;28;20224;-65
2022/03/29 07:23:14;;;;;;;18.73;13.02;;;;;;;12.63;39.92;94908.47;4964069;28;20244;-64
2022/03/29 07:25:40;;;;;;;22.98;14.70;;;;;;;12.79;39.59;94908.44;4963568;28;20211;-65
2022/03/29 07:28:11;;;;;;;22.27;14.00;;;;;;;12.87;39.21;94912.88;4957899;28;20228;-66
2022/03/29 07:30:38;;;;;;;16.05;13.52;;;;;;;12.97;39.25;94900.34;4957982;28;20235;-67
2022/03/29 07:33:04;;;;;;;15.88;12.65;;;;;;;13.07;39.01;94902.78;4957836;28;20254;-65
2022/03/29 07:35:31;;;;;;;18.50;12.65;;;;;;;13.10;38.73;94897.16;4963631;28;20420;-66
2022/03/29 07:37:58;;;;;;;16.38;12.98;;;;;;;13.24;38.51;94895.63;4961229;28;20319;-68
2022/03/29 07:40:25;;;;;;;18.00;12.65;;;;;;;13.34;38.31;94890.16;4958239;28;20228;-68
2022/03/29 07:42:52;;;;;;;18.50;12.15;;;;;;;13.55;37.73;94894.84;4956007;28;20231;-68
2022/03/29 07:45:18;;;;;;;16.77;12.25;;;;;;;13.57;37.21;94893.69;4962261;28;20220;-69
2022/03/29 07:47:45;;;;;;;14.70;11.80;;;;;;;13.76;36.65;94891.59;4962451;28;20654;-68
2022/03/29 07:50:12;;;;;;;15.25;11.23;;;;;;;13.76;36.78;94888.97;4958342;28;20203;-69
2022/03/29 07:52:40;;;;;;;12.80;11.27;;;;;;;13.74;36.38;94885.66;4991463;28;20578;-67
2022/03/29 07:55:07;;;;;;;13.82;11.32;;;;;;;13.86;36.14;94881.63;4961756;28;20589;-67
2022/03/29 07:57:34;;;;;;;17.13;10.80;;;;;;;13.94;36.03;94873.66;4955044;28;20276;-68
2022/03/29 08:00:00;;;;;;;15.88;11.43;;;;;;;14.15;35.50;94877.47;4961755;28;20246;-68
2022/03/29 08:02:25;;;;;;;12.88;10.75;;;;;;;14.21;35.00;94879.41;4962699;28;20260;-66
2022/03/29 08:04:51;;;;;;;11.20;9.52;;;;;;;14.26;34.51;94872.56;4963120;28;20240;-63
2022/03/29 08:07:17;;;;;;;14.90;9.90;;;;;;;14.33;34.48;94870.88;4962538;28;20224;-68
2022/03/29 08:09:42;;;;;;;15.23;10.02;;;;;;;14.38;34.40;94865.06;4954122;28;20276;-66
2022/03/29 08:12:08;;;;;;;15.98;9.88;;;;;;;14.41;34.17;94869.16;4961803;28;20323;-69
2022/03/29 08:14:34;;;;;;;13.20;9.60;;;;;;;14.36;34.27;94867.06;4956373;28;20275;-70
2022/03/29 08:17:00;;;;;;;12.98;9.52;;;;;;;14.43;34.11;94852.09;4954083;28;20302;-69
2022/03/29 08:19:26;;;;;;;14.93;10.38;;;;;;;14.29;35.06;94855.53;4963249;28;20211;-69
2022/03/29 08:21:52;;;;;;;20.80;10.00;;;;;;;14.40;34.43;94860.38;4963555;28;20274;-69
2022/03/29 08:24:25;;;;;;;17.83;9.98;;;;;;;14.53;34.00;94850.06;4954801;28;20240;-67
2022/03/29 08:26:54;;;;;;;13.90;9.23;;;;;;;14.53;33.79;94852.69;4957623;28;20220;-69
2022/03/29 08:29:23;;;;;;;13.05;9.52;;;;;;;14.50;33.71;94844.28;4959652;28;20310;-66
2022/03/29 08:31:49;;;;;;;12.63;8.40;;;;;;;14.59;33.86;94845.03;4966295;28;20555;-70
2022/03/29 08:34:16;;;;;;;13.07;8.73;;;;;;;14.67;33.34;94840.47;4952998;28;20314;-68
2022/03/29 08:36:43;;;;;;;11.20;8.52;;;;;;;14.76;33.13;94836.75;4952765;28;20225;-70
2022/03/29 08:39:10;;;;;;;12.45;8.32;;;;;;;14.77;33.13;94827.81;4956756;28;20243;-68
2022/03/29 08:41:44;;;;;;;14.68;9.32;;;;;;;14.90;33.34;94826.34;4955168;28;20597;-68
2022/03/29 08:44:10;;;;;;;17.17;8.65;;;;;;;15.08;33.01;94818.88;4961316;28;20216;-68
2022/03/29 08:46:38;;;;;;;12.18;8.02;;;;;;;15.13;32.68;94818.28;4963625;28;20288;-67
2022/03/29 08:49:07;;;;;;;12.77;8.43;;;;;;;15.22;32.15;94817.19;4956544;28;20221;-68
2022/03/29 08:51:34;;;;;;;17.65;9.70;;;;;;;15.17;32.41;94816.94;4972801;28;20225;-66
2022/03/29 08:54:00;;;;;;;12.68;8.60;;;;;;;15.25;32.26;94803.56;4977064;28;20239;-69
2022/03/29 08:56:26;;;;;;;12.70;8.95;;;;;;;15.26;32.06;94805.22;4955788;28;20252;-69
2022/03/29 08:58:51;;;;;;;15.77;8.77;;;;;;;15.39;31.72;94800.06;4986897;28;20208;-68
2022/03/29 09:01:21;;;;;;;14.30;8.68;;;;;;;15.54;31.73;94808.00;4957489;28;20247;-66
2022/03/29 09:04:05;;;;;;;15.32;8.57;;;;;;;15.40;31.76;94799.06;4954926;28;20235;-67
2022/03/29 09:06:31;;;;;;;10.07;8.18;;;;;;;15.42;31.70;94791.78;4949431;28;20616;-67
2022/03/29 09:08:56;;;;;;;10.55;8.60;;;;;;;15.61;31.21;94798.28;4951789;28;20228;-66
2022/03/29 09:11:22;;;;;;;14.18;9.05;;;;;;;15.87;30.93;94787.13;4955378;28;20328;-67
2022/03/29 09:14:04;;;;;;;12.18;8.07;;;;;;;15.96;30.66;94776.41;4956359;28;20232;-68
2022/03/29 09:16:34;;;;;;;11.98;7.85;;;;;;;16.05;30.44;94762.00;4955844;28;20225;-67
2022/03/29 09:19:00;;;;;;;14.25;7.82;;;;;;;16.29;29.61;94766.88;4956601;28;20215;-68
2022/03/29 09:21:27;;;;;;;18.05;9.95;;;;;;;16.36;29.20;94764.28;4952645;28;20217;-67
2022/03/29 09:24:14;;;;;;;16.90;7.88;;;;;;;16.40;29.08;94756.75;4950954;28;20272;-66
2022/03/29 09:26:52;;;;;;;12.82;7.30;;;;;;;16.38;29.19;94756.13;4953029;28;20227;-67
2022/03/29 09:29:19;;;;;;;10.52;7.35;;;;;;;16.49;29.06;94759.06;4949291;28;20222;-68
2022/03/29 09:31:46;;;;;;;13.57;7.32;;;;;;;16.67;29.29;94755.91;4949982;28;20495;-67
2022/03/29 09:34:19;;;;;;;14.85;7.28;;;;;;;16.82;28.38;94744.38;4956168;28;20226;-70
2022/03/29 09:36:49;;;;;;;12.95;7.40;;;;;;;17.04;28.01;94745.91;4956070;28;20261;-70
2022/03/29 09:39:29;;;;;;;14.98;6.85;;;;;;;17.20;27.37;94750.88;4957722;28;20224;-66
2022/03/29 09:42:04;;;;;;;15.57;7.00;;;;;;;17.19;27.03;94741.25;4960031;28;20231;-66
2022/03/29 09:44:40;;;;;;;10.10;6.65;;;;;;;17.19;27.19;94743.91;4957850;28;20704;-66
2022/03/29 09:47:07;;;;;;;12.32;6.32;;;;;;;17.10;27.22;94734.47;4954535;28;20779;-69
2022/03/29 09:49:53;;;;;;;14.13;6.20;;;;;;;17.22;26.74;94745.38;4952767;28;20303;-68
2022/03/29 09:52:20;;;;;;;9.95;6.65;;;;;;;17.23;26.37;94731.03;4937404;28;20224;-66
2022/03/29 09:55:04;;;;;;;12.68;6.10;;;;;;;17.30;26.49;94728.44;4943090;28;20231;-67
2022/03/29 09:57:38;;;;;;;10.90;6.45;;;;;;;17.58;26.30;94722.94;4940260;28;20236;-67
2022/03/29 10:00:07;;;;;;;13.20;5.95;;;;;;;17.86;25.83;94717.50;4955115;28;20275;-64
2022/03/29 10:02:38;;;;;;;12.25;5.45;;;;;;;18.23;24.33;94728.53;4938367;28;20295;-64
2022/03/29 10:05:04;;;;;;;9.40;5.38;;;;;;;18.17;23.97;94713.41;4937063;28;20205;-67
2022/03/29 10:09:25;;;;;;;8.82;5.00;;;;;;;18.01;23.62;94703.97;4955450;28;20212;-68
2022/03/29 10:10:38;;;;;;;12.73;5.30;;;;;;;18.05;24.63;94697.25;4956058;28;20224;-68
2022/03/29 10:13:04;;;;;;;17.70;6.18;;;;;;;18.34;24.01;94701.31;4945541;28;20220;-68
2022/03/29 10:15:29;;;;;;;12.85;5.97;;;;;;;18.50;24.50;94698.19;4942081;28;20228;-68
2022/03/29 10:17:56;;;;;;;9.38;5.95;;;;;;;18.44;24.45;94688.41;4937549;28;20230;-69
2022/03/29 10:20:21;;;;;;;10.80;6.18;;;;;;;18.50;24.90;94687.56;4950046;28;20236;-69
2022/03/29 10:22:47;;;;;;;12.55;6.05;;;;;;;18.43;24.70;94692.06;4929476;28;20802;-69
2022/03/29 10:25:12;;;;;;;11.60;6.35;;;;;;;18.61;24.24;94690.59;4943874;28;20322;-65
2022/03/29 10:27:39;;;;;;;12.13;6.13;;;;;;;18.58;23.79;94685.66;4941001;28;20349;-68
2022/03/29 10:30:05;;;;;;;12.25;6.38;;;;;;;18.11;24.56;94672.47;4961762;28;20369;-67
2022/03/29 10:32:31;;;;;;;12.90;5.97;;;;;;;18.06;24.98;94675.72;4961072;28;20221;-66
2022/03/29 10:35:08;;;;;;;12.98;6.43;;;;;;;18.44;24.86;94675.09;4974330;28;20216;-68
2022/03/29 10:37:55;;;;;;;15.65;6.32;;;;;;;18.85;23.88;94673.94;4959010;28;20279;-67
2022/03/29 10:40:38;;;;;;;12.68;6.05;;;;;;;19.15;23.07;94678.72;4958938;28;20227;-65
2022/03/29 10:43:29;;;;;;;16.02;7.28;;;;;;;18.81;23.48;94672.72;4958946;28;20302;-66
2022/03/29 10:45:55;;;;;;;13.50;6.57;;;;;;;18.87;23.44;94674.56;4957344;28;20221;-65
2022/03/29 10:48:20;;;;;;;15.93;7.05;;;;;;;18.61;23.58;94666.63;4956300;28;20232;-65
2022/03/29 10:50:58;;;;;;;15.27;5.90;;;;;;;18.16;24.21;94663.88;4950056;28;20228;-65
2022/03/29 10:53:29;;;;;;;12.88;5.57;;;;;;;18.45;23.72;94663.41;4966651;28;20228;-65
2022/03/29 10:56:15;;;;;;;16.92;6.35;;;;;;;18.64;23.64;94652.91;4957722;28;20208;-66
2022/03/29 10:59:06;;;;;;;14.23;5.93;;;;;;;18.93;23.29;94651.56;4953894;28;20236;-65
2022/03/29 11:01:34;;;;;;;18.95;6.00;;;;;;;19.38;22.54;94643.53;4959138;28;20228;-65
2022/03/29 11:04:07;;;;;;;11.20;6.30;;;;;;;19.89;21.70;94641.72;4962894;28;20283;-65
2022/03/29 11:06:33;;;;;;;11.85;5.30;;;;;;;19.89;21.23;94634.56;4964251;28;20271;-65
2022/03/29 11:09:05;;;;;;;15.13;5.50;;;;;;;19.69;21.46;94634.72;4963546;28;20221;-65
2022/03/29 11:11:40;;;;;;;9.25;5.00;;;;;;;19.59;21.41;94618.34;4954796;28;20225;-65
2022/03/29 11:14:41;;;;;;;14.85;5.97;;;;;;;19.73;21.36;94619.91;4969080;28;20209;-65
2022/03/29 11:17:08;;;;;;;12.25;5.03;;;;;;;19.35;21.80;94617.28;4905594;29;20224;-66
2022/03/29 11:19:47;;;;;;;11.27;4.60;;;;;;;18.93;21.20;94608.94;4911429;29;20289;-66
2022/03/29 11:22:41;;;;;;;16.45;5.03;;;;;;;19.05;21.99;94609.09;4943191;29;20384;-66
2022/03/29 11:25:09;;;;;;;12.57;4.70;;;;;;;19.15;22.09;94601.44;4943836;29;20227;-66
2022/03/29 11:27:36;;;;;;;10.15;4.68;;;;;;;19.17;22.06;94602.84;4940585;28;20225;-65
2022/03/29 11:30:07;;;;;;;13.38;4.63;;;;;;;18.98;22.12;94595.81;4942394;29;20287;-66
2022/03/29 11:32:39;;;;;;;10.35;4.53;;;;;;;18.75;22.55;94595.53;4938361;29;20233;-64